sensor_id;sensor_type;location;lat;lon;timestamp;temperature;humidity
22319;DHT22;11327;52.334;9.506;2024-03-23T00:55:12;8.10;99.90
22319;DHT22;11327;52.334;9.506;2024-03-23T00:58:33;8.10;99.90
22319;DHT22;11327;52.334;9.506;2024-03-23T01:01:54;8.10;99.90
22319;DHT22;11327;52.334;9.506;2024-03-23T01:05:15;8.10;99.90
22319;DHT22;11327;52.334;9.506;2024-03-23T01:08:36;8.10;99.90
22319;DHT22;11327;52.334;9.506;2024-03-23T01:11:56;8.10;99.90
22319;DHT22;11327;52.334;9.506;2024-03-23T01:15:17;8.50;99.90
22319;DHT22;11327;52.334;9.506;2024-03-23T01:18:38;8.10;99.90
22319;DHT22;11327;52.334;9.506;2024-03-23T01:21:58;8.40;99.90
22319;DHT22;11327;52.334;9.506;2024-03-23T01:25:19;8.10;99.90
22319;DHT22;11327;52.334;9.506;2024-03-23T01:28:40;8.10;99.90
22319;DHT22;11327;52.334;9.506;2024-03-23T01:32:01;8.10;99.90
22319;DHT22;11327;52.334;9.506;2024-03-23T01:35:22;8.60;99.90
22319;DHT22;11327;52.334;9.506;2024-03-23T01:38:42;8.10;99.90
22319;DHT22;11327;52.334;9.506;2024-03-23T01:42:03;8.90;99.90
22319;DHT22;11327;52.334;9.506;2024-03-23T01:45:24;8.00;99.90
22319;DHT22;11327;52.334;9.506;2024-03-23T01:48:45;8.00;99.90
22319;DHT22;11327;52.334;9.506;2024-03-23T01:52:06;8.00;99.90
22319;DHT22;11327;52.334;9.506;2024-03-23T01:55:28;8.00;99.90
22319;DHT22;11327;52.334;9.506;2024-03-23T01:58:49;8.00;99.90
22319;DHT22;11327;52.334;9.506;2024-03-23T02:02:10;8.00;99.90
22319;DHT22;11327;52.334;9.506;2024-03-23T02:05:31;7.90;99.90
22319;DHT22;11327;52.334;9.506;2024-03-23T02:08:53;8.00;99.90
22319;DHT22;11327;52.334;9.506;2024-03-23T02:12:14;8.10;99.90
22319;DHT22;11327;52.334;9.506;2024-03-23T02:15:35;7.90;99.90
22319;DHT22;11327;52.334;9.506;2024-03-23T02:18:56;7.90;99.90
22319;DHT22;11327;52.334;9.506;2024-03-23T02:22:17;7.90;99.90
22319;DHT22;11327;52.334;9.506;2024-03-23T02:25:37;7.90;99.90
22319;DHT22;11327;52.334;9.506;2024-03-23T02:28:58;7.90;99.90
22319;DHT22;11327;52.334;9.506;2024-03-23T02:32:19;7.90;99.90
22319;DHT22;11327;52.334;9.506;2024-03-23T02:35:39;7.90;99.90
22319;DHT22;11327;52.334;9.506;2024-03-23T02:39:00;8.10;99.90
22319;DHT22;11327;52.334;9.506;2024-03-23T02:42:21;7.90;99.90
22319;DHT22;11327;52.334;9.506;2024-03-23T02:45:42;7.90;99.90
22319;DHT22;11327;52.334;9.506;2024-03-23T02:49:02;7.90;99.90
22319;DHT22;11327;52.334;9.506;2024-03-23T02:52:25;7.90;99.90
22319;DHT22;11327;52.334;9.506;2024-03-23T02:55:45;7.90;99.90
22319;DHT22;11327;52.334;9.506;2024-03-23T02:59:06;7.90;99.90
22319;DHT22;11327;52.334;9.506;2024-03-23T03:02:27;7.80;99.90
22319;DHT22;11327;52.334;9.506;2024-03-23T03:05:48;7.80;99.90
22319;DHT22;11327;52.334;9.506;2024-03-23T03:09:08;7.80;99.90
22319;DHT22;11327;52.334;9.506;2024-03-23T03:12:29;7.70;99.90
22319;DHT22;11327;52.334;9.506;2024-03-23T03:15:50;7.90;99.90
22319;DHT22;11327;52.334;9.506;2024-03-23T03:19:10;9.50;99.90
22319;DHT22;11327;52.334;9.506;2024-03-23T03:22:32;7.90;99.90
22319;DHT22;11327;52.334;9.506;2024-03-23T03:25:52;7.60;99.90
22319;DHT22;11327;52.334;9.506;2024-03-23T03:29:13;7.70;99.90
22319;DHT22;11327;52.334;9.506;2024-03-23T03:32:34;7.60;99.90
22319;DHT22;11327;52.334;9.506;2024-03-23T03:35:55;7.60;99.90
22319;DHT22;11327;52.334;9.506;2024-03-23T03:39:16;7.80;99.90
22319;DHT22;11327;52.334;9.506;2024-03-23T03:42:37;7.60;99.90
22319;DHT22;11327;52.334;9.506;2024-03-23T03:46:00;7.60;99.90
22319;DHT22;11327;52.334;9.506;2024-03-23T03:49:21;7.50;99.90
22319;DHT22;11327;52.334;9.506;2024-03-23T03:52:42;7.50;99.90
22319;DHT22;11327;52.334;9.506;2024-03-23T03:56:03;7.50;99.90
22319;DHT22;11327;52.334;9.506;2024-03-23T03:59:24;7.50;99.90
22319;DHT22;11327;52.334;9.506;2024-03-23T04:02:45;7.50;99.90
22319;DHT22;11327;52.334;9.506;2024-03-23T04:06:06;7.50;99.90
22319;DHT22;11327;52.334;9.506;2024-03-23T04:09:26;7.50;99.90
22319;DHT22;11327;52.334;9.506;2024-03-23T04:12:48;7.50;99.90
22319;DHT22;11327;52.334;9.506;2024-03-23T04:16:08;7.50;99.90
22319;DHT22;11327;52.334;9.506;2024-03-23T04:19:29;7.50;99.90
22319;DHT22;11327;52.334;9.506;2024-03-23T04:22:50;7.40;99.90
22319;DHT22;11327;52.334;9.506;2024-03-23T04:26:11;7.40;99.90
22319;DHT22;11327;52.334;9.506;2024-03-23T04:29:32;7.40;99.90
22319;DHT22;11327;52.334;9.506;2024-03-23T04:32:52;7.40;99.90
22319;DHT22;11327;52.334;9.506;2024-03-23T04:36:13;7.40;99.90
22319;DHT22;11327;52.334;9.506;2024-03-23T04:39:35;7.40;99.90
22319;DHT22;11327;52.334;9.506;2024-03-23T04:42:56;7.90;99.90
22319;DHT22;11327;52.334;9.506;2024-03-23T04:46:17;7.40;99.90
22319;DHT22;11327;52.334;9.506;2024-03-23T04:49:38;7.40;99.90
22319;DHT22;11327;52.334;9.506;2024-03-23T04:52:58;7.40;99.90
22319;DHT22;11327;52.334;9.506;2024-03-23T04:56:19;7.50;99.90
22319;DHT22;11327;52.334;9.506;2024-03-23T04:59:40;7.30;99.90
22319;DHT22;11327;52.334;9.506;2024-03-23T05:03:01;7.30;99.90
22319;DHT22;11327;52.334;9.506;2024-03-23T05:06:22;7.30;99.90
22319;DHT22;11327;52.334;9.506;2024-03-23T05:09:42;7.30;99.90
22319;DHT22;11327;52.334;9.506;2024-03-23T05:13:03;7.30;99.90
22319;DHT22;11327;52.334;9.506;2024-03-23T05:16:24;7.30;99.90
22319;DHT22;11327;52.334;9.506;2024-03-23T05:19:45;7.60;99.90
22319;DHT22;11327;52.334;9.506;2024-03-23T05:23:06;7.20;99.90
22319;DHT22;11327;52.334;9.506;2024-03-23T05:26:26;7.10;99.90
22319;DHT22;11327;52.334;9.506;2024-03-23T05:29:48;7.10;99.90
22319;DHT22;11327;52.334;9.506;2024-03-23T05:33:09;7.00;99.90
22319;DHT22;11327;52.334;9.506;2024-03-23T05:36:30;7.00;99.90
22319;DHT22;11327;52.334;9.506;2024-03-23T05:39:51;7.00;99.90
22319;DHT22;11327;52.334;9.506;2024-03-23T05:43:11;7.10;99.90
22319;DHT22;11327;52.334;9.506;2024-03-23T05:46:32;7.10;99.90
22319;DHT22;11327;52.334;9.506;2024-03-23T05:49:53;7.40;99.90
22319;DHT22;11327;52.334;9.506;2024-03-23T05:53:15;7.30;99.90
22319;DHT22;11327;52.334;9.506;2024-03-23T05:56:36;7.00;99.90
22319;DHT22;11327;52.334;9.506;2024-03-23T05:59:57;7.20;99.90
22319;DHT22;11327;52.334;9.506;2024-03-23T06:03:17;7.00;99.90
22319;DHT22;11327;52.334;9.506;2024-03-23T06:06:39;7.00;99.90
22319;DHT22;11327;52.334;9.506;2024-03-23T06:10:00;7.10;99.90
22319;DHT22;11327;52.334;9.506;2024-03-23T06:13:21;7.60;99.90
22319;DHT22;11327;52.334;9.506;2024-03-23T06:16:43;7.00;99.90
22319;DHT22;11327;52.334;9.506;2024-03-23T06:20:05;7.00;99.90
22319;DHT22;11327;52.334;9.506;2024-03-23T06:23:28;7.00;99.90
22319;DHT22;11327;52.334;9.506;2024-03-23T06:26:49;7.40;99.90
22319;DHT22;11327;52.334;9.506;2024-03-23T06:30:11;7.40;99.90
22319;DHT22;11327;52.334;9.506;2024-03-23T06:33:32;7.10;99.90
22319;DHT22;11327;52.334;9.506;2024-03-23T06:36:53;7.10;99.90
22319;DHT22;11327;52.334;9.506;2024-03-23T06:40:14;7.20;99.90
22319;DHT22;11327;52.334;9.506;2024-03-23T06:43:35;7.10;99.90
22319;DHT22;11327;52.334;9.506;2024-03-23T06:46:56;7.20;99.90
22319;DHT22;11327;52.334;9.506;2024-03-23T06:50:17;7.10;99.90
22319;DHT22;11327;52.334;9.506;2024-03-23T06:53:38;7.10;99.90
22319;DHT22;11327;52.334;9.506;2024-03-23T06:56:59;7.10;99.90
22319;DHT22;11327;52.334;9.506;2024-03-23T07:00:20;7.20;99.90
22319;DHT22;11327;52.334;9.506;2024-03-23T07:03:42;7.10;99.90
22319;DHT22;11327;52.334;9.506;2024-03-23T07:07:03;7.20;99.90
22319;DHT22;11327;52.334;9.506;2024-03-23T07:10:24;7.20;99.90
22319;DHT22;11327;52.334;9.506;2024-03-23T07:13:45;7.20;99.90
22319;DHT22;11327;52.334;9.506;2024-03-23T07:17:06;7.30;99.90
22319;DHT22;11327;52.334;9.506;2024-03-23T07:20:26;7.30;99.90
22319;DHT22;11327;52.334;9.506;2024-03-23T07:23:47;7.30;99.90
22319;DHT22;11327;52.334;9.506;2024-03-23T07:27:08;7.30;99.90
22319;DHT22;11327;52.334;9.506;2024-03-23T07:30:30;7.30;99.90
22319;DHT22;11327;52.334;9.506;2024-03-23T07:33:51;7.30;99.90
22319;DHT22;11327;52.334;9.506;2024-03-23T07:37:11;8.10;99.90
22319;DHT22;11327;52.334;9.506;2024-03-23T07:40:32;7.30;99.90
22319;DHT22;11327;52.334;9.506;2024-03-23T07:43:53;7.40;99.90
22319;DHT22;11327;52.334;9.506;2024-03-23T07:47:14;7.40;99.90
22319;DHT22;11327;52.334;9.506;2024-03-23T07:50:35;7.40;99.90
22319;DHT22;11327;52.334;9.506;2024-03-23T07:53:56;7.80;99.90
22319;DHT22;11327;52.334;9.506;2024-03-23T07:57:16;7.50;99.90
22319;DHT22;11327;52.334;9.506;2024-03-23T08:00:37;7.50;99.90
22319;DHT22;11327;52.334;9.506;2024-03-23T08:03:58;7.50;99.90
22319;DHT22;11327;52.334;9.506;2024-03-23T08:07:19;7.50;99.90
22319;DHT22;11327;52.334;9.506;2024-03-23T08:10:50;7.50;99.90
22319;DHT22;11327;52.334;9.506;2024-03-23T08:14:11;7.50;99.90
22319;DHT22;11327;52.334;9.506;2024-03-23T08:17:32;7.50;99.90
22319;DHT22;11327;52.334;9.506;2024-03-23T08:24:23;7.70;99.90
22319;DHT22;11327;52.334;9.506;2024-03-23T08:27:44;7.90;99.90
22319;DHT22;11327;52.334;9.506;2024-03-23T08:31:08;8.00;99.90
22319;DHT22;11327;52.334;9.506;2024-03-23T08:34:29;8.10;99.90
22319;DHT22;11327;52.334;9.506;2024-03-23T08:37:50;8.20;99.90
22319;DHT22;11327;52.334;9.506;2024-03-23T08:41:11;8.40;99.90
22319;DHT22;11327;52.334;9.506;2024-03-23T08:44:32;8.30;99.90
22319;DHT22;11327;52.334;9.506;2024-03-23T08:47:52;8.30;99.90
22319;DHT22;11327;52.334;9.506;2024-03-23T08:51:15;8.50;99.90
22319;DHT22;11327;52.334;9.506;2024-03-23T08:54:36;8.20;99.90
22319;DHT22;11327;52.334;9.506;2024-03-23T08:57:57;8.20;99.90
22319;DHT22;11327;52.334;9.506;2024-03-23T09:01:17;8.20;99.90
22319;DHT22;11327;52.334;9.506;2024-03-23T09:04:38;8.30;99.90
22319;DHT22;11327;52.334;9.506;2024-03-23T09:07:59;8.40;99.90
22319;DHT22;11327;52.334;9.506;2024-03-23T09:11:19;8.40;99.90
22319;DHT22;11327;52.334;9.506;2024-03-23T09:14:40;8.40;99.90
22319;DHT22;11327;52.334;9.506;2024-03-23T09:18:02;8.50;99.90
22319;DHT22;11327;52.334;9.506;2024-03-23T09:21:23;9.10;99.90
22319;DHT22;11327;52.334;9.506;2024-03-23T09:24:43;8.90;99.90
22319;DHT22;11327;52.334;9.506;2024-03-23T09:28:07;9.20;99.90
22319;DHT22;11327;52.334;9.506;2024-03-23T09:31:31;9.10;99.90
22319;DHT22;11327;52.334;9.506;2024-03-23T09:34:53;9.30;99.90
22319;DHT22;11327;52.334;9.506;2024-03-23T09:38:14;9.30;99.90
22319;DHT22;11327;52.334;9.506;2024-03-23T09:41:35;9.50;99.90
22319;DHT22;11327;52.334;9.506;2024-03-23T09:44:57;9.40;99.90
22319;DHT22;11327;52.334;9.506;2024-03-23T09:48:18;9.40;99.90
22319;DHT22;11327;52.334;9.506;2024-03-23T09:51:39;9.60;99.90
22319;DHT22;11327;52.334;9.506;2024-03-23T09:55:00;9.50;99.90
22319;DHT22;11327;52.334;9.506;2024-03-23T09:58:23;9.50;99.90
22319;DHT22;11327;52.334;9.506;2024-03-23T10:01:44;9.20;99.90
22319;DHT22;11327;52.334;9.506;2024-03-23T10:05:19;9.30;99.90
22319;DHT22;11327;52.334;9.506;2024-03-23T10:08:32;9.40;99.90
22319;DHT22;11327;52.334;9.506;2024-03-23T10:12:07;9.80;99.90
22319;DHT22;11327;52.334;9.506;2024-03-23T10:15:23;10.10;99.90
22319;DHT22;11327;52.334;9.506;2024-03-23T10:18:44;10.40;99.90
22319;DHT22;11327;52.334;9.506;2024-03-23T10:22:06;10.60;99.90
22319;DHT22;11327;52.334;9.506;2024-03-23T10:25:27;10.60;99.90
22319;DHT22;11327;52.334;9.506;2024-03-23T10:28:57;10.80;99.90
22319;DHT22;11327;52.334;9.506;2024-03-23T10:32:20;10.80;99.90
22319;DHT22;11327;52.334;9.506;2024-03-23T10:35:41;10.70;99.90
22319;DHT22;11327;52.334;9.506;2024-03-23T10:39:04;10.10;99.90
22319;DHT22;11327;52.334;9.506;2024-03-23T10:42:26;9.80;99.90
22319;DHT22;11327;52.334;9.506;2024-03-23T10:45:49;10.00;99.90
22319;DHT22;11327;52.334;9.506;2024-03-23T10:49:10;11.60;99.90
22319;DHT22;11327;52.334;9.506;2024-03-23T10:52:33;10.00;99.90
22319;DHT22;11327;52.334;9.506;2024-03-23T10:55:55;10.00;99.90
22319;DHT22;11327;52.334;9.506;2024-03-23T10:59:17;10.10;99.90
22319;DHT22;11327;52.334;9.506;2024-03-23T11:02:38;10.10;99.90
22319;DHT22;11327;52.334;9.506;2024-03-23T11:06:00;6.80;99.90
22319;DHT22;11327;52.334;9.506;2024-03-23T11:09:41;9.00;99.90
22319;DHT22;11327;52.334;9.506;2024-03-23T11:13:22;8.60;99.90
22319;DHT22;11327;52.334;9.506;2024-03-23T11:16:44;8.40;99.90
22319;DHT22;11327;52.334;9.506;2024-03-23T11:20:06;8.70;99.90
22319;DHT22;11327;52.334;9.506;2024-03-23T11:23:28;8.80;99.90
22319;DHT22;11327;52.334;9.506;2024-03-23T11:26:49;9.30;99.90
22319;DHT22;11327;52.334;9.506;2024-03-23T11:33:34;9.70;99.90
22319;DHT22;11327;52.334;9.506;2024-03-23T11:37:04;9.60;99.90
22319;DHT22;11327;52.334;9.506;2024-03-23T11:40:25;9.50;99.90
22319;DHT22;11327;52.334;9.506;2024-03-23T11:43:46;9.00;99.90
22319;DHT22;11327;52.334;9.506;2024-03-23T11:47:08;8.80;99.90
22319;DHT22;11327;52.334;9.506;2024-03-23T11:50:31;8.70;99.90
22319;DHT22;11327;52.334;9.506;2024-03-23T11:53:52;8.50;99.90
22319;DHT22;11327;52.334;9.506;2024-03-23T11:57:14;8.30;99.90
22319;DHT22;11327;52.334;9.506;2024-03-23T12:00:35;8.30;99.90
22319;DHT22;11327;52.334;9.506;2024-03-23T12:03:56;8.10;99.90
22319;DHT22;11327;52.334;9.506;2024-03-23T12:07:20;8.20;99.90
22319;DHT22;11327;52.334;9.506;2024-03-23T12:10:46;8.00;99.90
22319;DHT22;11327;52.334;9.506;2024-03-23T12:14:07;8.20;99.90
22319;DHT22;11327;52.334;9.506;2024-03-23T12:17:28;8.20;99.90
22319;DHT22;11327;52.334;9.506;2024-03-23T12:20:49;8.30;99.90
22319;DHT22;11327;52.334;9.506;2024-03-23T12:24:10;8.30;99.90
22319;DHT22;11327;52.334;9.506;2024-03-23T12:27:31;8.20;99.90
22319;DHT22;11327;52.334;9.506;2024-03-23T12:30:52;8.10;99.90
22319;DHT22;11327;52.334;9.506;2024-03-23T12:34:14;7.90;99.90
22319;DHT22;11327;52.334;9.506;2024-03-23T12:37:35;7.90;99.90
22319;DHT22;11327;52.334;9.506;2024-03-23T12:40:56;7.70;99.90
22319;DHT22;11327;52.334;9.506;2024-03-23T12:44:16;7.50;99.90
22319;DHT22;11327;52.334;9.506;2024-03-23T12:47:37;7.40;99.90
22319;DHT22;11327;52.334;9.506;2024-03-23T12:50:58;7.40;99.90
22319;DHT22;11327;52.334;9.506;2024-03-23T12:54:18;7.30;99.90
22319;DHT22;11327;52.334;9.506;2024-03-23T12:57:39;7.30;99.90
22319;DHT22;11327;52.334;9.506;2024-03-23T13:01:01;7.40;99.90
22319;DHT22;11327;52.334;9.506;2024-03-23T13:04:22;7.60;99.90
22319;DHT22;11327;52.334;9.506;2024-03-23T13:07:43;7.90;99.90
22319;DHT22;11327;52.334;9.506;2024-03-23T13:11:04;8.60;99.90
22319;DHT22;11327;52.334;9.506;2024-03-23T13:14:24;8.80;99.90
22319;DHT22;11327;52.334;9.506;2024-03-23T13:17:45;9.10;99.90
22319;DHT22;11327;52.334;9.506;2024-03-23T13:21:06;9.30;99.90
22319;DHT22;11327;52.334;9.506;2024-03-23T13:24:28;9.50;99.90
22319;DHT22;11327;52.334;9.506;2024-03-23T13:27:48;9.60;99.90
22319;DHT22;11327;52.334;9.506;2024-03-23T13:31:09;9.80;99.90
22319;DHT22;11327;52.334;9.506;2024-03-23T13:34:30;9.50;99.90
22319;DHT22;11327;52.334;9.506;2024-03-23T13:37:51;9.60;99.90
22319;DHT22;11327;52.334;9.506;2024-03-23T13:41:11;9.80;99.90
22319;DHT22;11327;52.334;9.506;2024-03-23T13:44:32;10.00;99.90
22319;DHT22;11327;52.334;9.506;2024-03-23T13:47:53;10.10;99.90
22319;DHT22;11327;52.334;9.506;2024-03-23T13:51:14;9.90;99.90
22319;DHT22;11327;52.334;9.506;2024-03-23T13:54:35;9.80;99.90
22319;DHT22;11327;52.334;9.506;2024-03-23T13:57:56;10.00;99.90
22319;DHT22;11327;52.334;9.506;2024-03-23T14:01:17;10.00;99.90
22319;DHT22;11327;52.334;9.506;2024-03-23T14:04:38;10.10;99.90
22319;DHT22;11327;52.334;9.506;2024-03-23T14:07:59;10.20;99.90
22319;DHT22;11327;52.334;9.506;2024-03-23T14:11:19;10.10;99.90
22319;DHT22;11327;52.334;9.506;2024-03-23T14:14:40;9.90;99.90
22319;DHT22;11327;52.334;9.506;2024-03-23T14:18:01;9.50;99.90
22319;DHT22;11327;52.334;9.506;2024-03-23T14:21:22;9.10;99.90
22319;DHT22;11327;52.334;9.506;2024-03-23T14:24:43;8.70;99.90
22319;DHT22;11327;52.334;9.506;2024-03-23T14:28:04;8.10;99.90
22319;DHT22;11327;52.334;9.506;2024-03-23T14:31:25;7.60;99.90
22319;DHT22;11327;52.334;9.506;2024-03-23T14:34:45;7.20;99.90
22319;DHT22;11327;52.334;9.506;2024-03-23T14:38:07;7.10;99.90
22319;DHT22;11327;52.334;9.506;2024-03-23T14:41:28;7.10;99.90
22319;DHT22;11327;52.334;9.506;2024-03-23T14:44:49;7.10;99.90
22319;DHT22;11327;52.334;9.506;2024-03-23T14:48:10;7.10;99.90
22319;DHT22;11327;52.334;9.506;2024-03-23T14:51:31;7.50;99.90
22319;DHT22;11327;52.334;9.506;2024-03-23T14:54:54;7.50;99.90
22319;DHT22;11327;52.334;9.506;2024-03-23T14:58:16;8.00;99.90
22319;DHT22;11327;52.334;9.506;2024-03-23T15:01:37;8.70;99.90
22319;DHT22;11327;52.334;9.506;2024-03-23T15:04:58;8.80;99.90
22319;DHT22;11327;52.334;9.506;2024-03-23T15:08:19;8.80;99.90
22319;DHT22;11327;52.334;9.506;2024-03-23T15:11:40;9.10;99.90
22319;DHT22;11327;52.334;9.506;2024-03-23T15:15:01;9.20;99.90
22319;DHT22;11327;52.334;9.506;2024-03-23T15:18:22;9.50;99.90
22319;DHT22;11327;52.334;9.506;2024-03-23T15:21:48;9.60;99.90
22319;DHT22;11327;52.334;9.506;2024-03-23T15:25:09;9.40;99.90
22319;DHT22;11327;52.334;9.506;2024-03-23T15:28:30;9.20;99.90
22319;DHT22;11327;52.334;9.506;2024-03-23T15:32:02;9.00;99.90
22319;DHT22;11327;52.334;9.506;2024-03-23T15:35:23;9.00;99.90
22319;DHT22;11327;52.334;9.506;2024-03-23T15:38:44;8.20;99.90
22319;DHT22;11327;52.334;9.506;2024-03-23T15:42:06;7.40;99.90
22319;DHT22;11327;52.334;9.506;2024-03-23T15:45:27;6.50;99.90
22319;DHT22;11327;52.334;9.506;2024-03-23T15:48:48;6.10;99.90
22319;DHT22;11327;52.334;9.506;2024-03-23T15:52:09;6.00;99.90
22319;DHT22;11327;52.334;9.506;2024-03-23T15:55:31;6.10;99.90
22319;DHT22;11327;52.334;9.506;2024-03-23T15:58:54;6.20;99.90
22319;DHT22;11327;52.334;9.506;2024-03-23T16:02:15;6.60;99.90
22319;DHT22;11327;52.334;9.506;2024-03-23T16:05:36;6.80;99.90
22319;DHT22;11327;52.334;9.506;2024-03-23T16:08:57;7.00;99.90
22319;DHT22;11327;52.334;9.506;2024-03-23T16:12:18;7.10;99.90
22319;DHT22;11327;52.334;9.506;2024-03-23T16:15:39;7.40;99.90
22319;DHT22;11327;52.334;9.506;2024-03-23T16:18:59;7.00;99.90
22319;DHT22;11327;52.334;9.506;2024-03-23T16:22:20;7.00;99.90
22319;DHT22;11327;52.334;9.506;2024-03-23T16:25:48;7.20;99.90
22319;DHT22;11327;52.334;9.506;2024-03-23T16:29:10;7.30;99.90
22319;DHT22;11327;52.334;9.506;2024-03-23T16:32:31;7.20;99.90
22319;DHT22;11327;52.334;9.506;2024-03-23T16:39:21;7.20;99.90
22319;DHT22;11327;52.334;9.506;2024-03-23T16:42:42;7.60;99.90
22319;DHT22;11327;52.334;9.506;2024-03-23T16:46:04;7.00;99.90
22319;DHT22;11327;52.334;9.506;2024-03-23T16:49:25;6.90;99.90
22319;DHT22;11327;52.334;9.506;2024-03-23T16:52:46;7.00;99.90
22319;DHT22;11327;52.334;9.506;2024-03-23T16:56:08;6.90;99.90
22319;DHT22;11327;52.334;9.506;2024-03-23T16:59:29;6.90;99.90
22319;DHT22;11327;52.334;9.506;2024-03-23T17:02:50;6.80;99.90
22319;DHT22;11327;52.334;9.506;2024-03-23T17:06:10;6.70;99.90
22319;DHT22;11327;52.334;9.506;2024-03-23T17:09:33;6.80;99.90
22319;DHT22;11327;52.334;9.506;2024-03-23T17:12:54;6.70;99.90
22319;DHT22;11327;52.334;9.506;2024-03-23T17:16:16;7.40;99.90
22319;DHT22;11327;52.334;9.506;2024-03-23T17:19:36;6.60;99.90
22319;DHT22;11327;52.334;9.506;2024-03-23T17:22:57;6.50;99.90
22319;DHT22;11327;52.334;9.506;2024-03-23T17:26:18;6.50;99.90
22319;DHT22;11327;52.334;9.506;2024-03-23T17:29:40;6.50;99.90
22319;DHT22;11327;52.334;9.506;2024-03-23T17:33:01;6.50;99.90
22319;DHT22;11327;52.334;9.506;2024-03-23T17:36:23;6.60;99.90
22319;DHT22;11327;52.334;9.506;2024-03-23T17:39:45;6.40;99.90
22319;DHT22;11327;52.334;9.506;2024-03-23T17:43:06;6.40;99.90
22319;DHT22;11327;52.334;9.506;2024-03-23T17:46:27;6.50;99.90
22319;DHT22;11327;52.334;9.506;2024-03-23T17:49:48;6.90;99.90
22319;DHT22;11327;52.334;9.506;2024-03-23T17:53:09;6.50;99.90
22319;DHT22;11327;52.334;9.506;2024-03-23T17:56:29;6.70;99.90
22319;DHT22;11327;52.334;9.506;2024-03-23T17:59:50;6.30;99.90
22319;DHT22;11327;52.334;9.506;2024-03-23T18:03:11;6.10;99.90
22319;DHT22;11327;52.334;9.506;2024-03-23T18:06:32;5.70;99.90
22319;DHT22;11327;52.334;9.506;2024-03-23T18:09:53;5.60;99.90
22319;DHT22;11327;52.334;9.506;2024-03-23T18:13:13;5.70;99.90
22319;DHT22;11327;52.334;9.506;2024-03-23T18:16:34;5.30;99.90
22319;DHT22;11327;52.334;9.506;2024-03-23T18:19:55;5.20;99.90
22319;DHT22;11327;52.334;9.506;2024-03-23T18:23:16;5.20;99.90
22319;DHT22;11327;52.334;9.506;2024-03-23T18:26:38;5.50;99.90
22319;DHT22;11327;52.334;9.506;2024-03-23T18:29:59;5.20;99.90
22319;DHT22;11327;52.334;9.506;2024-03-23T18:33:19;5.20;99.90
22319;DHT22;11327;52.334;9.506;2024-03-23T18:36:40;5.20;99.90
22319;DHT22;11327;52.334;9.506;2024-03-23T18:40:01;6.00;99.90
22319;DHT22;11327;52.334;9.506;2024-03-23T18:43:21;5.80;99.90
22319;DHT22;11327;52.334;9.506;2024-03-23T18:46:42;5.30;99.90
22319;DHT22;11327;52.334;9.506;2024-03-23T18:50:03;6.30;99.90
22319;DHT22;11327;52.334;9.506;2024-03-23T18:53:24;5.30;99.90
22319;DHT22;11327;52.334;9.506;2024-03-23T18:56:45;5.40;99.90
22319;DHT22;11327;52.334;9.506;2024-03-23T19:00:07;5.30;99.90
22319;DHT22;11327;52.334;9.506;2024-03-23T19:03:29;5.40;99.90
22319;DHT22;11327;52.334;9.506;2024-03-23T19:06:50;5.40;99.90
22319;DHT22;11327;52.334;9.506;2024-03-23T19:10:11;5.80;99.90
22319;DHT22;11327;52.334;9.506;2024-03-23T19:13:32;5.50;99.90
22319;DHT22;11327;52.334;9.506;2024-03-23T19:16:52;5.30;99.90
22319;DHT22;11327;52.334;9.506;2024-03-23T19:20:14;6.00;99.90
22319;DHT22;11327;52.334;9.506;2024-03-23T19:23:35;5.30;99.90
22319;DHT22;11327;52.334;9.506;2024-03-23T19:26:55;5.30;99.90
22319;DHT22;11327;52.334;9.506;2024-03-23T19:30:16;5.40;99.90
22319;DHT22;11327;52.334;9.506;2024-03-23T19:33:37;5.20;99.90
22319;DHT22;11327;52.334;9.506;2024-03-23T19:36:58;5.20;99.90
22319;DHT22;11327;52.334;9.506;2024-03-23T19:40:19;5.50;99.90
22319;DHT22;11327;52.334;9.506;2024-03-23T19:43:40;5.20;99.90
22319;DHT22;11327;52.334;9.506;2024-03-23T19:47:01;5.40;99.90
22319;DHT22;11327;52.334;9.506;2024-03-23T19:50:22;5.20;99.90
22319;DHT22;11327;52.334;9.506;2024-03-23T19:53:43;5.20;99.90
22319;DHT22;11327;52.334;9.506;2024-03-23T19:57:04;5.20;99.90
22319;DHT22;11327;52.334;9.506;2024-03-23T20:00:25;5.20;99.90
22319;DHT22;11327;52.334;9.506;2024-03-23T20:03:46;5.50;99.90
22319;DHT22;11327;52.334;9.506;2024-03-23T20:07:07;5.20;99.90
22319;DHT22;11327;52.334;9.506;2024-03-23T20:10:28;5.20;99.90
22319;DHT22;11327;52.334;9.506;2024-03-23T20:13:49;5.10;99.90
22319;DHT22;11327;52.334;9.506;2024-03-23T20:17:10;5.10;99.90
22319;DHT22;11327;52.334;9.506;2024-03-23T20:20:31;7.50;99.90
22319;DHT22;11327;52.334;9.506;2024-03-23T20:23:51;5.10;99.90
22319;DHT22;11327;52.334;9.506;2024-03-23T20:27:12;5.10;99.90
22319;DHT22;11327;52.334;9.506;2024-03-23T20:30:33;5.20;99.90
22319;DHT22;11327;52.334;9.506;2024-03-23T20:33:54;5.20;99.90
22319;DHT22;11327;52.334;9.506;2024-03-23T20:37:16;5.20;99.90
22319;DHT22;11327;52.334;9.506;2024-03-23T20:40:37;5.20;99.90
22319;DHT22;11327;52.334;9.506;2024-03-23T20:43:58;5.30;99.90
22319;DHT22;11327;52.334;9.506;2024-03-23T20:47:19;5.10;99.90
22319;DHT22;11327;52.334;9.506;2024-03-23T20:50:39;5.10;99.90
22319;DHT22;11327;52.334;9.506;2024-03-23T20:54:00;5.10;99.90
22319;DHT22;11327;52.334;9.506;2024-03-23T20:57:21;5.00;99.90
22319;DHT22;11327;52.334;9.506;2024-03-23T21:00:42;5.00;99.90
22319;DHT22;11327;52.334;9.506;2024-03-23T21:04:02;5.00;99.90
22319;DHT22;11327;52.334;9.506;2024-03-23T21:07:26;4.90;99.90
22319;DHT22;11327;52.334;9.506;2024-03-23T21:10:51;4.90;99.90
22319;DHT22;11327;52.334;9.506;2024-03-23T21:14:12;5.00;99.90
22319;DHT22;11327;52.334;9.506;2024-03-23T21:17:33;4.90;99.90
22319;DHT22;11327;52.334;9.506;2024-03-23T21:20:55;4.90;99.90
22319;DHT22;11327;52.334;9.506;2024-03-23T21:24:17;2.50;99.90
22319;DHT22;11327;52.334;9.506;2024-03-23T21:27:39;4.90;99.90
22319;DHT22;11327;52.334;9.506;2024-03-23T21:31:05;4.90;99.90
22319;DHT22;11327;52.334;9.506;2024-03-23T21:34:25;4.90;99.90
22319;DHT22;11327;52.334;9.506;2024-03-23T21:37:50;4.90;99.90
22319;DHT22;11327;52.334;9.506;2024-03-23T21:41:11;4.90;99.90
22319;DHT22;11327;52.334;9.506;2024-03-23T21:44:32;4.90;99.90
22319;DHT22;11327;52.334;9.506;2024-03-23T21:47:53;4.90;99.90
22319;DHT22;11327;52.334;9.506;2024-03-23T21:51:14;4.90;99.90
22319;DHT22;11327;52.334;9.506;2024-03-23T21:54:35;3.40;99.90
22319;DHT22;11327;52.334;9.506;2024-03-23T21:57:56;4.90;99.90
22319;DHT22;11327;52.334;9.506;2024-03-23T22:01:16;2.40;99.90
22319;DHT22;11327;52.334;9.506;2024-03-23T22:04:37;4.90;99.90
22319;DHT22;11327;52.334;9.506;2024-03-23T22:07:58;5.20;99.90
22319;DHT22;11327;52.334;9.506;2024-03-23T22:11:19;5.20;99.90
22319;DHT22;11327;52.334;9.506;2024-03-23T22:14:40;4.80;99.90
22319;DHT22;11327;52.334;9.506;2024-03-23T22:18:01;4.80;99.90
22319;DHT22;11327;52.334;9.506;2024-03-23T22:21:22;4.80;99.90
22319;DHT22;11327;52.334;9.506;2024-03-23T22:24:43;4.80;99.90
22319;DHT22;11327;52.334;9.506;2024-03-23T22:28:04;4.80;99.90
22319;DHT22;11327;52.334;9.506;2024-03-23T22:31:26;4.80;99.90
22319;DHT22;11327;52.334;9.506;2024-03-23T22:34:48;5.00;99.90